sensor_id;sensor_type;location;lat;lon;timestamp;pressure;altitude;pressure_sealevel;temperature;humidity
4410;BME280;2218;51.408;7.208;2022-09-13T00:02:16;99247.94;;;22.32;52.14
4410;BME280;2218;51.408;7.208;2022-09-13T00:04:42;99257.69;;;22.32;51.95
4410;BME280;2218;51.408;7.208;2022-09-13T00:07:09;99248.91;;;22.31;51.72
4410;BME280;2218;51.408;7.208;2022-09-13T00:09:38;99253.38;;;22.31;51.72
4410;BME280;2218;51.408;7.208;2022-09-13T00:12:05;99256.03;;;22.31;51.84
4410;BME280;2218;51.408;7.208;2022-09-13T00:14:32;99244.59;;;22.30;51.71
4410;BME280;2218;51.408;7.208;2022-09-13T00:16:59;99240.13;;;22.31;51.67
4410;BME280;2218;51.408;7.208;2022-09-13T00:19:26;99217.28;;;22.30;52.29
4410;BME280;2218;51.408;7.208;2022-09-13T00:21:53;99228.56;;;22.32;51.75
4410;BME280;2218;51.408;7.208;2022-09-13T00:24:20;99212.81;;;22.30;51.98
4410;BME280;2218;51.408;7.208;2022-09-13T00:26:48;99225.22;;;22.30;52.17
4410;BME280;2218;51.408;7.208;2022-09-13T00:29:15;99216.47;;;22.29;52.24
4410;BME280;2218;51.408;7.208;2022-09-13T00:31:42;99208.50;;;22.29;52.21
4410;BME280;2218;51.408;7.208;2022-09-13T00:34:09;99199.75;;;22.29;51.90
4410;BME280;2218;51.408;7.208;2022-09-13T00:36:36;99200.56;;;22.29;51.77
4410;BME280;2218;51.408;7.208;2022-09-13T00:39:03;99203.22;;;22.29;52.21
4410;BME280;2218;51.408;7.208;2022-09-13T00:41:29;99195.28;;;22.29;51.81
4410;BME280;2218;51.408;7.208;2022-09-13T00:44:00;99200.56;;;22.29;51.81
4410;BME280;2218;51.408;7.208;2022-09-13T00:46:34;99195.28;;;22.29;52.18
4410;BME280;2218;51.408;7.208;2022-09-13T00:49:13;99200.56;;;22.29;51.92
4410;BME280;2218;51.408;7.208;2022-09-13T00:51:49;99202.38;;;22.29;52.19
4410;BME280;2218;51.408;7.208;2022-09-13T00:54:21;99198.03;;;22.28;51.96
4410;BME280;2218;51.408;7.208;2022-09-13T00:56:56;99196.25;;;22.28;52.03
4410;BME280;2218;51.408;7.208;2022-09-13T00:59:29;99198.91;;;22.28;52.40
4410;BME280;2218;51.408;7.208;2022-09-13T01:02:01;99198.03;;;22.28;52.20
4410;BME280;2218;51.408;7.208;2022-09-13T01:04:32;99195.41;;;22.28;51.86
4410;BME280;2218;51.408;7.208;2022-09-13T01:07:06;99198.91;;;22.28;51.90
4410;BME280;2218;51.408;7.208;2022-09-13T01:09:38;99199.84;;;22.27;51.86
4410;BME280;2218;51.408;7.208;2022-09-13T01:12:13;99199.84;;;22.27;51.99
4410;BME280;2218;51.408;7.208;2022-09-13T01:14:45;99202.50;;;22.27;52.39
4410;BME280;2218;51.408;7.208;2022-09-13T01:17:13;99196.25;;;22.28;51.67
4410;BME280;2218;51.408;7.208;2022-09-13T01:19:40;99191.91;;;22.27;52.28
4410;BME280;2218;51.408;7.208;2022-09-13T01:22:34;99178.69;;;22.27;52.07
4410;BME280;2218;51.408;7.208;2022-09-13T01:26:00;99189.28;;;22.27;51.96
4410;BME280;2218;51.408;7.208;2022-09-13T01:28:57;99194.56;;;22.27;52.10
4410;BME280;2218;51.408;7.208;2022-09-13T01:31:38;99180.50;;;22.27;52.30
4410;BME280;2218;51.408;7.208;2022-09-13T01:34:25;99181.31;;;22.27;52.31
4410;BME280;2218;51.408;7.208;2022-09-13T01:37:30;99171.72;;;22.26;51.86
4410;BME280;2218;51.408;7.208;2022-09-13T01:40:08;99175.19;;;22.27;51.72
4410;BME280;2218;51.408;7.208;2022-09-13T01:43:00;99178.69;;;22.27;51.74
4410;BME280;2218;51.408;7.208;2022-09-13T01:45:40;99169.06;;;22.26;51.71
4410;BME280;2218;51.408;7.208;2022-09-13T01:48:18;99180.50;;;22.27;51.90
4410;BME280;2218;51.408;7.208;2022-09-13T01:50:59;99169.06;;;22.26;52.06
4410;BME280;2218;51.408;7.208;2022-09-13T01:53:37;99169.91;;;22.27;51.79
4410;BME280;2218;51.408;7.208;2022-09-13T01:56:15;99174.38;;;22.26;52.25
4410;BME280;2218;51.408;7.208;2022-09-13T01:58:53;99171.72;;;22.26;52.09
4410;BME280;2218;51.408;7.208;2022-09-13T02:01:28;99176.19;;;22.26;51.77
4410;BME280;2218;51.408;7.208;2022-09-13T02:04:02;99176.19;;;22.26;51.93
4410;BME280;2218;51.408;7.208;2022-09-13T02:06:35;99172.56;;;22.27;51.95
4410;BME280;2218;51.408;7.208;2022-09-13T02:09:12;99173.53;;;22.26;52.27
4410;BME280;2218;51.408;7.208;2022-09-13T02:11:43;99177.00;;;22.26;52.03
4410;BME280;2218;51.408;7.208;2022-09-13T02:14:16;99167.41;;;22.25;52.29
4410;BME280;2218;51.408;7.208;2022-09-13T02:16:51;99165.59;;;22.26;52.06
4410;BME280;2218;51.408;7.208;2022-09-13T02:19:30;99175.34;;;22.25;52.27
4410;BME280;2218;51.408;7.208;2022-09-13T02:22:02;99173.53;;;22.26;51.74
4410;BME280;2218;51.408;7.208;2022-09-13T02:24:34;99172.69;;;22.25;51.92
4410;BME280;2218;51.408;7.208;2022-09-13T02:27:07;99178.00;;;22.25;52.37
4410;BME280;2218;51.408;7.208;2022-09-13T02:29:38;99174.50;;;22.25;52.33
4410;BME280;2218;51.408;7.208;2022-09-13T02:32:13;99177.16;;;22.25;52.34
4410;BME280;2218;51.408;7.208;2022-09-13T02:34:49;99171.88;;;22.25;52.34
4410;BME280;2218;51.408;7.208;2022-09-13T02:37:22;99175.34;;;22.25;51.99
4410;BME280;2218;51.408;7.208;2022-09-13T02:39:54;99176.31;;;22.24;51.81
4410;BME280;2218;51.408;7.208;2022-09-13T02:42:33;99169.22;;;22.25;52.27
4410;BME280;2218;51.408;7.208;2022-09-13T02:45:03;99168.38;;;22.24;51.73
4410;BME280;2218;51.408;7.208;2022-09-13T02:47:44;99171.88;;;22.25;52.31
4410;BME280;2218;51.408;7.208;2022-09-13T02:50:34;99165.75;;;22.24;52.27
4410;BME280;2218;51.408;7.208;2022-09-13T02:53:13;99163.09;;;22.24;51.81
4410;BME280;2218;51.408;7.208;2022-09-13T02:55:53;99162.13;;;22.25;51.93
4410;BME280;2218;51.408;7.208;2022-09-13T02:58:31;99164.91;;;22.24;52.07
4410;BME280;2218;51.408;7.208;2022-09-13T03:01:00;99165.75;;;22.24;51.85
4410;BME280;2218;51.408;7.208;2022-09-13T03:03:28;99162.25;;;22.24;52.34
4410;BME280;2218;51.408;7.208;2022-09-13T03:05:56;99155.16;;;22.24;52.07
4410;BME280;2218;51.408;7.208;2022-09-13T03:08:25;99167.56;;;22.24;52.10
4410;BME280;2218;51.408;7.208;2022-09-13T03:11:05;99165.75;;;22.24;51.86
4410;BME280;2218;51.408;7.208;2022-09-13T03:17:12;99171.03;;;22.24;51.84
4410;BME280;2218;51.408;7.208;2022-09-13T03:20:07;99170.19;;;22.24;51.97
4410;BME280;2218;51.408;7.208;2022-09-13T03:23:07;99171.03;;;22.24;51.96
4410;BME280;2218;51.408;7.208;2022-09-13T03:26:18;99175.50;;;22.24;52.32
4410;BME280;2218;51.408;7.208;2022-09-13T03:29:02;99165.75;;;22.24;52.17
4410;BME280;2218;51.408;7.208;2022-09-13T03:31:35;99168.50;;;22.23;52.48
4410;BME280;2218;51.408;7.208;2022-09-13T03:34:12;99174.66;;;22.23;52.29
4410;BME280;2218;51.408;7.208;2022-09-13T03:36:46;99180.78;;;22.24;52.35
4410;BME280;2218;51.408;7.208;2022-09-13T03:39:30;99179.97;;;22.23;52.05
4410;BME280;2218;51.408;7.208;2022-09-13T03:42:08;99180.78;;;22.24;52.26
4410;BME280;2218;51.408;7.208;2022-09-13T03:44:40;99175.50;;;22.24;52.31
4410;BME280;2218;51.408;7.208;2022-09-13T03:47:11;99167.66;;;22.22;52.05
4410;BME280;2218;51.408;7.208;2022-09-13T03:49:39;99169.38;;;22.23;52.26
4410;BME280;2218;51.408;7.208;2022-09-13T03:52:06;99172.97;;;22.22;52.40
4410;BME280;2218;51.408;7.208;2022-09-13T03:54:37;99174.66;;;22.23;52.28
4410;BME280;2218;51.408;7.208;2022-09-13T03:57:10;99169.38;;;22.23;52.06
4410;BME280;2218;51.408;7.208;2022-09-13T03:59:44;99166.72;;;22.23;51.83
4410;BME280;2218;51.408;7.208;2022-09-13T04:02:13;99174.66;;;22.23;52.19
4410;BME280;2218;51.408;7.208;2022-09-13T04:04:42;99164.06;;;22.23;52.00
4410;BME280;2218;51.408;7.208;2022-09-13T04:07:11;99161.44;;;22.23;51.87
4410;BME280;2218;51.408;7.208;2022-09-13T04:09:40;99161.44;;;22.23;52.05
4410;BME280;2218;51.408;7.208;2022-09-13T04:12:07;99165.75;;;22.24;51.71
4410;BME280;2218;51.408;7.208;2022-09-13T04:14:35;99161.44;;;22.23;52.31
4410;BME280;2218;51.408;7.208;2022-09-13T04:17:03;99164.06;;;22.23;51.88
4410;BME280;2218;51.408;7.208;2022-09-13T04:19:29;99165.03;;;22.22;52.16
4410;BME280;2218;51.408;7.208;2022-09-13T04:21:57;99161.44;;;22.23;52.35
4410;BME280;2218;51.408;7.208;2022-09-13T04:24:26;99157.09;;;22.22;52.18
4410;BME280;2218;51.408;7.208;2022-09-13T04:26:55;99143.84;;;22.22;51.67
4410;BME280;2218;51.408;7.208;2022-09-13T04:29:24;99157.09;;;22.22;52.14
4410;BME280;2218;51.408;7.208;2022-09-13T04:31:53;99152.63;;;22.23;51.69
4410;BME280;2218;51.408;7.208;2022-09-13T04:34:20;99146.50;;;22.22;51.79
4410;BME280;2218;51.408;7.208;2022-09-13T04:36:48;99156.13;;;22.23;51.56
4410;BME280;2218;51.408;7.208;2022-09-13T04:39:15;99158.78;;;22.23;52.01
4410;BME280;2218;51.408;7.208;2022-09-13T04:41:43;99162.38;;;22.22;51.67
4410;BME280;2218;51.408;7.208;2022-09-13T04:44:15;99162.38;;;22.22;51.64
4410;BME280;2218;51.408;7.208;2022-09-13T04:46:46;99156.25;;;22.22;52.03
4410;BME280;2218;51.408;7.208;2022-09-13T04:49:14;99162.38;;;22.22;51.92
4410;BME280;2218;51.408;7.208;2022-09-13T04:51:41;99166.72;;;22.23;51.90
4410;BME280;2218;51.408;7.208;2022-09-13T04:54:10;99167.66;;;22.22;51.94
4410;BME280;2218;51.408;7.208;2022-09-13T04:56:37;99167.66;;;22.22;51.69
4410;BME280;2218;51.408;7.208;2022-09-13T04:59:04;99167.66;;;22.22;52.24
4410;BME280;2218;51.408;7.208;2022-09-13T05:01:33;99179.09;;;22.23;52.19
4410;BME280;2218;51.408;7.208;2022-09-13T05:04:00;99172.97;;;22.22;51.75
4410;BME280;2218;51.408;7.208;2022-09-13T05:06:27;99163.22;;;22.23;51.89
4410;BME280;2218;51.408;7.208;2022-09-13T05:08:55;99177.44;;;22.22;52.33
4410;BME280;2218;51.408;7.208;2022-09-13T05:11:25;99165.03;;;22.22;51.65
4410;BME280;2218;51.408;7.208;2022-09-13T05:13:53;99165.03;;;22.22;52.20
4410;BME280;2218;51.408;7.208;2022-09-13T05:16:22;99162.38;;;22.22;51.64
4410;BME280;2218;51.408;7.208;2022-09-13T05:18:51;99158.06;;;22.21;52.00
4410;BME280;2218;51.408;7.208;2022-09-13T05:21:18;99150.97;;;22.22;52.32
4410;BME280;2218;51.408;7.208;2022-09-13T05:23:49;99157.09;;;22.22;52.39
4410;BME280;2218;51.408;7.208;2022-09-13T05:26:18;99162.38;;;22.22;52.18
4410;BME280;2218;51.408;7.208;2022-09-13T05:28:45;99158.91;;;22.22;52.05
4410;BME280;2218;51.408;7.208;2022-09-13T05:31:16;99161.53;;;22.22;51.73
4410;BME280;2218;51.408;7.208;2022-09-13T05:33:44;99162.38;;;22.22;52.35
4410;BME280;2218;51.408;7.208;2022-09-13T05:36:13;99164.19;;;22.22;51.70
4410;BME280;2218;51.408;7.208;2022-09-13T05:38:40;99166.84;;;22.22;52.19
4410;BME280;2218;51.408;7.208;2022-09-13T05:41:07;99167.66;;;22.22;52.00
4410;BME280;2218;51.408;7.208;2022-09-13T05:43:35;99163.34;;;22.21;52.05
4410;BME280;2218;51.408;7.208;2022-09-13T05:46:05;99169.50;;;22.22;52.21
4410;BME280;2218;51.408;7.208;2022-09-13T05:48:33;99166.00;;;22.21;52.41
4410;BME280;2218;51.408;7.208;2022-09-13T05:51:06;99172.97;;;22.22;51.94
4410;BME280;2218;51.408;7.208;2022-09-13T05:53:35;99166.00;;;22.21;52.08
4410;BME280;2218;51.408;7.208;2022-09-13T05:56:05;99172.97;;;22.22;51.88
4410;BME280;2218;51.408;7.208;2022-09-13T05:58:32;99182.72;;;22.22;51.85
4410;BME280;2218;51.408;7.208;2022-09-13T06:01:00;99183.56;;;22.22;52.03
4410;BME280;2218;51.408;7.208;2022-09-13T06:03:27;99181.88;;;22.21;51.94
4410;BME280;2218;51.408;7.208;2022-09-13T06:05:55;99187.19;;;22.21;52.38
4410;BME280;2218;51.408;7.208;2022-09-13T06:08:22;99190.66;;;22.22;51.86
4410;BME280;2218;51.408;7.208;2022-09-13T06:10:55;99185.25;;;22.23;51.87
4410;BME280;2218;51.408;7.208;2022-09-13T06:13:23;99174.09;;;22.29;51.96
4410;BME280;2218;51.408;7.208;2022-09-13T06:15:51;99183.97;;;22.37;51.34
4410;BME280;2218;51.408;7.208;2022-09-13T06:18:18;99185.38;;;22.41;51.63
4410;BME280;2218;51.408;7.208;2022-09-13T06:20:46;99171.03;;;22.43;51.39
4410;BME280;2218;51.408;7.208;2022-09-13T06:23:14;99170.06;;;22.44;51.94
4410;BME280;2218;51.408;7.208;2022-09-13T06:25:41;99176.03;;;22.47;51.17
4410;BME280;2218;51.408;7.208;2022-09-13T06:28:10;99174.38;;;22.45;51.15
4410;BME280;2218;51.408;7.208;2022-09-13T06:30:37;99176.34;;;22.43;51.85
4410;BME280;2218;51.408;7.208;2022-09-13T06:33:04;99183.31;;;22.44;51.72
4410;BME280;2218;51.408;7.208;2022-09-13T06:35:31;99180.22;;;22.39;51.45
4410;BME280;2218;51.408;7.208;2022-09-13T06:37:57;99175.34;;;22.44;51.42
4410;BME280;2218;51.408;7.208;2022-09-13T06:40:25;99178.28;;;22.41;51.27
4410;BME280;2218;51.408;7.208;2022-09-13T06:42:52;99180.22;;;22.49;51.56
4410;BME280;2218;51.408;7.208;2022-09-13T06:45:20;99169.06;;;22.45;51.79
4410;BME280;2218;51.408;7.208;2022-09-13T06:47:47;99173.69;;;22.43;51.83
4410;BME280;2218;51.408;7.208;2022-09-13T06:50:14;99181.63;;;22.43;51.49
4410;BME280;2218;51.408;7.208;2022-09-13T06:52:42;99179.41;;;22.49;51.25
4410;BME280;2218;51.408;7.208;2022-09-13T06:55:09;99185.53;;;22.49;51.07
4410;BME280;2218;51.408;7.208;2022-09-13T06:57:36;99187.03;;;22.42;51.03
4410;BME280;2218;51.408;7.208;2022-09-13T07:00:04;99185.38;;;22.41;51.70
4410;BME280;2218;51.408;7.208;2022-09-13T07:02:32;99186.63;;;22.47;51.38
4410;BME280;2218;51.408;7.208;2022-09-13T07:04:59;99197.22;;;22.47;50.94
4410;BME280;2218;51.408;7.208;2022-09-13T07:07:26;99193.06;;;22.44;51.19
4410;BME280;2218;51.408;7.208;2022-09-13T07:09:53;99184.13;;;22.45;50.98
4410;BME280;2218;51.408;7.208;2022-09-13T07:12:20;99192.06;;;22.45;51.45
4410;BME280;2218;51.408;7.208;2022-09-13T07:14:47;99184.97;;;22.45;50.86
4410;BME280;2218;51.408;7.208;2022-09-13T07:17:14;99185.94;;;22.44;50.93
4410;BME280;2218;51.408;7.208;2022-09-13T07:19:42;99187.75;;;22.44;50.92
4410;BME280;2218;51.408;7.208;2022-09-13T07:22:09;99183.00;;;22.48;51.45
4410;BME280;2218;51.408;7.208;2022-09-13T07:24:36;99188.28;;;22.48;51.21
4410;BME280;2218;51.408;7.208;2022-09-13T07:27:03;99193.31;;;22.51;51.16
4410;BME280;2218;51.408;7.208;2022-09-13T07:29:30;99186.38;;;22.50;50.84
4410;BME280;2218;51.408;7.208;2022-09-13T07:31:56;99186.09;;;22.53;50.81
4410;BME280;2218;51.408;7.208;2022-09-13T07:34:25;99185.38;;;22.51;51.30
4410;BME280;2218;51.408;7.208;2022-09-13T07:36:53;99195.16;;;22.50;51.42
4410;BME280;2218;51.408;7.208;2022-09-13T07:39:21;99185.38;;;22.51;51.30
4410;BME280;2218;51.408;7.208;2022-09-13T07:41:49;99183.56;;;22.51;50.86
4410;BME280;2218;51.408;7.208;2022-09-13T07:44:16;99187.75;;;22.54;51.35
4410;BME280;2218;51.408;7.208;2022-09-13T07:46:43;99187.47;;;22.57;50.82
4410;BME280;2218;51.408;7.208;2022-09-13T07:49:12;99193.19;;;22.62;50.92
4410;BME280;2218;51.408;7.208;2022-09-13T07:51:41;99191.09;;;22.65;50.83
4410;BME280;2218;51.408;7.208;2022-09-13T07:54:13;99190.81;;;22.68;50.76
4410;BME280;2218;51.408;7.208;2022-09-13T07:56:40;99191.66;;;22.69;51.20
4410;BME280;2218;51.408;7.208;2022-09-13T07:59:12;99196.25;;;22.67;51.08
4410;BME280;2218;51.408;7.208;2022-09-13T08:01:42;99205.16;;;22.66;51.40
4410;BME280;2218;51.408;7.208;2022-09-13T08:04:11;99208.53;;;22.68;51.24
4410;BME280;2218;51.408;7.208;2022-09-13T08:06:40;99213.69;;;22.69;50.83
4410;BME280;2218;51.408;7.208;2022-09-13T08:09:11;99212.00;;;22.68;51.19
4410;BME280;2218;51.408;7.208;2022-09-13T08:11:40;99212.53;;;22.72;51.44
4410;BME280;2218;51.408;7.208;2022-09-13T08:14:11;99212.28;;;22.75;51.44
4410;BME280;2218;51.408;7.208;2022-09-13T08:16:39;99215.91;;;22.74;51.14
4410;BME280;2218;51.408;7.208;2022-09-13T08:19:10;99223.13;;;22.72;51.08
4410;BME280;2218;51.408;7.208;2022-09-13T08:21:40;99223.13;;;22.72;51.41
4410;BME280;2218;51.408;7.208;2022-09-13T08:24:14;99225.66;;;22.74;51.63
4410;BME280;2218;51.408;7.208;2022-09-13T08:26:42;99229.84;;;22.76;51.76
4410;BME280;2218;51.408;7.208;2022-09-13T08:29:11;99227.19;;;22.76;51.47
4410;BME280;2218;51.408;7.208;2022-09-13T08:31:38;99231.50;;;22.77;51.65
4410;BME280;2218;51.408;7.208;2022-09-13T08:34:09;99225.38;;;22.86;51.59
4410;BME280;2218;51.408;7.208;2022-09-13T08:36:37;99222.06;;;22.94;51.23
4410;BME280;2218;51.408;7.208;2022-09-13T08:39:07;99225.97;;;22.90;51.51
4410;BME280;2218;51.408;7.208;2022-09-13T08:44:47;99219.09;;;22.87;51.76
4410;BME280;2218;51.408;7.208;2022-09-13T08:47:33;99223.47;;;22.88;51.88
4410;BME280;2218;51.408;7.208;2022-09-13T08:50:10;99224.00;;;22.92;51.95
4410;BME280;2218;51.408;7.208;2022-09-13T08:52:53;99221.22;;;22.93;51.67
4410;BME280;2218;51.408;7.208;2022-09-13T08:55:38;99218.97;;;22.99;51.79
4410;BME280;2218;51.408;7.208;2022-09-13T08:58:28;99212.00;;;22.98;51.27
4410;BME280;2218;51.408;7.208;2022-09-13T09:01:05;99221.31;;;23.02;51.67
4410;BME280;2218;51.408;7.208;2022-09-13T09:03:41;99215.63;;;22.96;51.59
4410;BME280;2218;51.408;7.208;2022-09-13T09:06:14;99210.91;;;22.90;51.86
4410;BME280;2218;51.408;7.208;2022-09-13T09:08:47;99218.41;;;22.95;51.78
4410;BME280;2218;51.408;7.208;2022-09-13T09:11:31;99212.13;;;22.96;52.31
4410;BME280;2218;51.408;7.208;2022-09-13T09:14:10;99210.47;;;22.95;51.67
4410;BME280;2218;51.408;7.208;2022-09-13T09:16:45;99212.88;;;22.88;51.88
4410;BME280;2218;51.408;7.208;2022-09-13T09:19:21;99212.72;;;22.90;51.87
4410;BME280;2218;51.408;7.208;2022-09-13T09:21:51;99212.56;;;22.91;52.31
4410;BME280;2218;51.408;7.208;2022-09-13T09:24:23;99217.84;;;22.91;52.93
4410;BME280;2218;51.408;7.208;2022-09-13T09:26:52;99211.72;;;22.91;52.77
4410;BME280;2218;51.408;7.208;2022-09-13T09:29:27;99213.38;;;22.92;52.19
4410;BME280;2218;51.408;7.208;2022-09-13T09:32:09;99204.50;;;22.93;52.24
4410;BME280;2218;51.408;7.208;2022-09-13T09:34:55;99209.78;;;22.93;52.11
4410;BME280;2218;51.408;7.208;2022-09-13T09:37:29;99208.81;;;22.94;52.47
4410;BME280;2218;51.408;7.208;2022-09-13T09:39:59;99212.28;;;22.94;52.69
4410;BME280;2218;51.408;7.208;2022-09-13T09:42:39;99203.34;;;22.95;52.56
4410;BME280;2218;51.408;7.208;2022-09-13T09:45:24;99203.34;;;22.95;52.64
4410;BME280;2218;51.408;7.208;2022-09-13T09:47:54;99194.41;;;22.96;52.62
4410;BME280;2218;51.408;7.208;2022-09-13T09:50:26;99199.59;;;22.98;52.49
4410;BME280;2218;51.408;7.208;2022-09-13T09:53:01;99198.78;;;22.98;52.38
4410;BME280;2218;51.408;7.208;2022-09-13T09:55:31;99197.78;;;22.99;52.08
4410;BME280;2218;51.408;7.208;2022-09-13T09:58:01;99201.41;;;22.98;52.31
4410;BME280;2218;51.408;7.208;2022-09-13T10:00:33;99208.38;;;22.99;52.77
4410;BME280;2218;51.408;7.208;2022-09-13T10:03:05;99204.06;;;22.98;53.06
4410;BME280;2218;51.408;7.208;2022-09-13T10:05:34;99197.78;;;22.99;52.08
4410;BME280;2218;51.408;7.208;2022-09-13T10:08:06;99199.44;;;23.00;53.17
4410;BME280;2218;51.408;7.208;2022-09-13T10:10:39;99197.63;;;23.00;53.14
4410;BME280;2218;51.408;7.208;2022-09-13T10:13:15;99190.50;;;23.01;53.17
4410;BME280;2218;51.408;7.208;2022-09-13T10:15:54;99193.16;;;23.01;53.24
4410;BME280;2218;51.408;7.208;2022-09-13T10:18:24;99191.34;;;23.01;53.19
4410;BME280;2218;51.408;7.208;2022-09-13T10:21:02;99196.53;;;23.03;53.62
4410;BME280;2218;51.408;7.208;2022-09-13T10:23:31;99198.31;;;23.02;53.51
4410;BME280;2218;51.408;7.208;2022-09-13T10:26:06;99206.13;;;23.04;53.57
4410;BME280;2218;51.408;7.208;2022-09-13T10:28:43;99206.81;;;23.06;53.77
4410;BME280;2218;51.408;7.208;2022-09-13T10:31:16;99205.84;;;23.07;53.52
4410;BME280;2218;51.408;7.208;2022-09-13T10:33:56;99204.88;;;23.08;53.88
4410;BME280;2218;51.408;7.208;2022-09-13T10:36:28;99198.72;;;23.07;54.19
4410;BME280;2218;51.408;7.208;2022-09-13T10:39:00;99202.22;;;23.08;53.76
4410;BME280;2218;51.408;7.208;2022-09-13T10:41:31;99199.44;;;23.09;54.06
4410;BME280;2218;51.408;7.208;2022-09-13T10:44:01;99192.47;;;23.08;54.32
4410;BME280;2218;51.408;7.208;2022-09-13T10:46:35;99193.97;;;23.11;53.91
4410;BME280;2218;51.408;7.208;2022-09-13T10:49:02;99195.63;;;23.12;53.72
4410;BME280;2218;51.408;7.208;2022-09-13T10:51:34;99191.03;;;23.14;53.84
4410;BME280;2218;51.408;7.208;2022-09-13T10:54:18;99190.22;;;23.13;54.11
4410;BME280;2218;51.408;7.208;2022-09-13T10:56:46;99188.25;;;23.15;54.16
4410;BME280;2218;51.408;7.208;2022-09-13T10:59:19;99190.06;;;23.15;54.19
4410;BME280;2218;51.408;7.208;2022-09-13T11:02:10;99191.72;;;23.16;53.78
4410;BME280;2218;51.408;7.208;2022-09-13T11:05:05;99196.75;;;23.19;53.86
4410;BME280;2218;51.408;7.208;2022-09-13T11:08:04;99195.19;;;23.26;53.68
4410;BME280;2218;51.408;7.208;2022-09-13T11:10:44;99191.84;;;23.24;54.21
4410;BME280;2218;51.408;7.208;2022-09-13T11:13:27;99182.34;;;23.21;53.99
4410;BME280;2218;51.408;7.208;2022-09-13T11:16:06;99176.22;;;23.21;53.99
4410;BME280;2218;51.408;7.208;2022-09-13T11:19:34;99177.88;;;23.22;53.97
4410;BME280;2218;51.408;7.208;2022-09-13T11:22:28;99172.59;;;23.22;53.68
4410;BME280;2218;51.408;7.208;2022-09-13T11:25:13;99166.16;;;23.25;53.86
4410;BME280;2218;51.408;7.208;2022-09-13T11:27:52;99165.34;;;23.24;54.08
4410;BME280;2218;51.408;7.208;2022-09-13T11:30:23;99165.19;;;23.26;53.84
4410;BME280;2218;51.408;7.208;2022-09-13T11:33:26;99172.28;;;23.35;53.09
4410;BME280;2218;51.408;7.208;2022-09-13T11:36:23;99175.06;;;23.33;53.54
4410;BME280;2218;51.408;7.208;2022-09-13T11:39:05;99165.59;;;23.31;53.85
4410;BME280;2218;51.408;7.208;2022-09-13T11:41:45;99158.47;;;23.31;53.39
4410;BME280;2218;51.408;7.208;2022-09-13T11:44:35;99155.81;;;23.31;53.58
4410;BME280;2218;51.408;7.208;2022-09-13T11:47:18;99163.75;;;23.31;53.33
4410;BME280;2218;51.408;7.208;2022-09-13T11:50:02;99156.53;;;23.33;53.07
4410;BME280;2218;51.408;7.208;2022-09-13T11:52:52;99155.53;;;23.34;53.12
4410;BME280;2218;51.408;7.208;2022-09-13T11:55:27;99139.63;;;23.34;53.79
4410;BME280;2218;51.408;7.208;2022-09-13T11:58:00;99138.34;;;23.38;53.18
4410;BME280;2218;51.408;7.208;2022-09-13T12:00:34;99141.84;;;23.39;53.71
4410;BME280;2218;51.408;7.208;2022-09-13T12:03:15;99138.19;;;23.40;53.27
4410;BME280;2218;51.408;7.208;2022-09-13T12:05:49;99132.06;;;23.39;53.42
4410;BME280;2218;51.408;7.208;2022-09-13T12:08:24;99133.72;;;23.40;53.61
4410;BME280;2218;51.408;7.208;2022-09-13T12:10:55;99130.25;;;23.40;53.18
4410;BME280;2218;51.408;7.208;2022-09-13T12:13:28;99140.03;;;23.39;53.52
4410;BME280;2218;51.408;7.208;2022-09-13T12:16:00;99136.53;;;23.39;53.59
4410;BME280;2218;51.408;7.208;2022-09-13T12:18:35;99128.56;;;23.39;53.01
4410;BME280;2218;51.408;7.208;2022-09-13T12:21:09;99130.41;;;23.38;53.20
4410;BME280;2218;51.408;7.208;2022-09-13T12:23:46;99124.94;;;23.40;53.08
4410;BME280;2218;51.408;7.208;2022-09-13T12:26:21;99122.44;;;23.38;53.32
4410;BME280;2218;51.408;7.208;2022-09-13T12:28:55;99125.94;;;23.39;53.60
4410;BME280;2218;51.408;7.208;2022-09-13T12:31:27;99120.63;;;23.39;53.13
4410;BME280;2218;51.408;7.208;2022-09-13T12:33:55;99121.47;;;23.39;53.60
4410;BME280;2218;51.408;7.208;2022-09-13T12:36:59;99119.78;;;23.38;53.30
4410;BME280;2218;51.408;7.208;2022-09-13T12:40:03;99122.56;;;23.37;53.82
4410;BME280;2218;51.408;7.208;2022-09-13T12:43:15;99117.25;;;23.37;53.30
4410;BME280;2218;51.408;7.208;2022-09-13T12:46:14;99118.25;;;23.36;53.22
4410;BME280;2218;51.408;7.208;2022-09-13T12:49:08;99120.06;;;23.35;53.21
4410;BME280;2218;51.408;7.208;2022-09-13T12:51:58;99104.16;;;23.35;53.35
4410;BME280;2218;51.408;7.208;2022-09-13T12:57:46;99107.53;;;23.37;54.13
4410;BME280;2218;51.408;7.208;2022-09-13T13:00:19;99119.78;;;23.38;54.16
4410;BME280;2218;51.408;7.208;2022-09-13T13:03:00;99112.81;;;23.37;54.24
4410;BME280;2218;51.408;7.208;2022-09-13T13:05:39;99113.66;;;23.38;53.85
4410;BME280;2218;51.408;7.208;2022-09-13T13:08:26;99111.69;;;23.40;53.67
4410;BME280;2218;51.408;7.208;2022-09-13T13:11:05;99111.25;;;23.44;53.99
4410;BME280;2218;51.408;7.208;2022-09-13T13:13:37;99103.28;;;23.44;53.89
4410;BME280;2218;51.408;7.208;2022-09-13T13:16:25;99103.97;;;23.46;54.03
4410;BME280;2218;51.408;7.208;2022-09-13T13:18:54;99105.94;;;23.44;53.99
4410;BME280;2218;51.408;7.208;2022-09-13T13:21:35;99104.13;;;23.45;54.23
4410;BME280;2218;51.408;7.208;2022-09-13T13:24:38;99109.41;;;23.45;53.88
4410;BME280;2218;51.408;7.208;2022-09-13T13:27:41;99105.78;;;23.46;53.66
4410;BME280;2218;51.408;7.208;2022-09-13T13:30:52;99109.97;;;23.48;53.86
4410;BME280;2218;51.408;7.208;2022-09-13T13:33:28;99099.03;;;23.52;53.83
4410;BME280;2218;51.408;7.208;2022-09-13T13:36:19;99100.75;;;23.53;54.21
4410;BME280;2218;51.408;7.208;2022-09-13T13:38:47;99110.53;;;23.52;53.58
4410;BME280;2218;51.408;7.208;2022-09-13T13:41:52;99111.47;;;23.51;54.15
4410;BME280;2218;51.408;7.208;2022-09-13T13:45:23;99099.03;;;23.52;54.35
4410;BME280;2218;51.408;7.208;2022-09-13T13:48:08;99098.22;;;23.51;54.51
4410;BME280;2218;51.408;7.208;2022-09-13T13:51:25;99097.25;;;23.52;54.50
4410;BME280;2218;51.408;7.208;2022-09-13T13:54:01;99091.94;;;23.52;54.91
4410;BME280;2218;51.408;7.208;2022-09-13T13:56:46;99090.13;;;23.53;54.73
4410;BME280;2218;51.408;7.208;2022-09-13T13:59:22;99084.81;;;23.53;54.17
4410;BME280;2218;51.408;7.208;2022-09-13T14:01:56;99084.13;;;23.51;54.57
4410;BME280;2218;51.408;7.208;2022-09-13T14:05:07;99085.66;;;23.53;54.32
4410;BME280;2218;51.408;7.208;2022-09-13T14:11:07;99081.19;;;23.54;54.57
4410;BME280;2218;51.408;7.208;2022-09-13T14:13:51;99081.19;;;23.54;54.13
4410;BME280;2218;51.408;7.208;2022-09-13T14:16:40;99076.72;;;23.54;53.85
4410;BME280;2218;51.408;7.208;2022-09-13T14:19:29;99081.19;;;23.54;54.28